sensor_id;sensor_type;location;lat;lon;timestamp;pressure;altitude;pressure_sealevel;temperature
60731;BMP280;46580;52.114;11.674;2023-10-09T00:00:51;-19579.47;;;12.80
60731;BMP280;46580;52.114;11.674;2023-10-09T00:03:23;-19577.03;;;12.71
60731;BMP280;46580;52.114;11.674;2023-10-09T00:05:59;-19577.31;;;12.72
60731;BMP280;46580;52.114;11.674;2023-10-09T00:08:27;-19577.31;;;12.72
60731;BMP280;46580;52.114;11.674;2023-10-09T00:10:58;-19574.47;;;12.63
60731;BMP280;46580;52.114;11.674;2023-10-09T00:13:46;-19571.88;;;12.54
60731;BMP280;46580;52.114;11.674;2023-10-09T00:16:21;-19569.88;;;12.47
60731;BMP280;46580;52.114;11.674;2023-10-09T00:19:09;-19568.59;;;12.43
60731;BMP280;46580;52.114;11.674;2023-10-09T00:22:00;-19565.03;;;12.30
60731;BMP280;46580;52.114;11.674;2023-10-09T00:24:38;-19565.47;;;12.32
60731;BMP280;46580;52.114;11.674;2023-10-09T00:27:11;-19564.16;;;12.27
60731;BMP280;46580;52.114;11.674;2023-10-09T00:29:38;-19563.59;;;12.26
60731;BMP280;46580;52.114;11.674;2023-10-09T00:32:19;-19566.16;;;12.34
60731;BMP280;46580;52.114;11.674;2023-10-09T00:34:49;-19567.31;;;12.38
60731;BMP280;46580;52.114;11.674;2023-10-09T00:37:16;-19569.88;;;12.47
60731;BMP280;46580;52.114;11.674;2023-10-09T00:39:52;-19570.88;;;12.50
60731;BMP280;46580;52.114;11.674;2023-10-09T00:42:24;-19573.47;;;12.59
60731;BMP280;46580;52.114;11.674;2023-10-09T00:45:24;-19574.16;;;12.62
60731;BMP280;46580;52.114;11.674;2023-10-09T00:47:57;-19575.31;;;12.65
60731;BMP280;46580;52.114;11.674;2023-10-09T00:50:25;-19575.47;;;12.66
60731;BMP280;46580;52.114;11.674;2023-10-09T00:53:12;-19572.88;;;12.57
60731;BMP280;46580;52.114;11.674;2023-10-09T00:55:52;-19568.16;;;12.41
60731;BMP280;46580;52.114;11.674;2023-10-09T00:58:22;-19569.59;;;12.46
60731;BMP280;46580;52.114;11.674;2023-10-09T01:00:56;-19570.75;;;12.50
60731;BMP280;46580;52.114;11.674;2023-10-09T01:03:27;-19572.75;;;12.57
60731;BMP280;46580;52.114;11.674;2023-10-09T01:06:10;-19574.47;;;12.63
60731;BMP280;46580;52.114;11.674;2023-10-09T01:08:39;-19571.31;;;12.52
60731;BMP280;46580;52.114;11.674;2023-10-09T01:11:05;-19572.16;;;12.55
60731;BMP280;46580;52.114;11.674;2023-10-09T01:13:52;-19573.59;;;12.60
60731;BMP280;46580;52.114;11.674;2023-10-09T01:16:20;-19571.03;;;12.51
60731;BMP280;46580;52.114;11.674;2023-10-09T01:18:54;-19572.16;;;12.55
60731;BMP280;46580;52.114;11.674;2023-10-09T01:21:27;-19572.75;;;12.57
60731;BMP280;46580;52.114;11.674;2023-10-09T01:23:56;-19573.31;;;12.59
60731;BMP280;46580;52.114;11.674;2023-10-09T01:26:57;-19568.88;;;12.44
60731;BMP280;46580;52.114;11.674;2023-10-09T01:29:25;-19565.59;;;12.32
60731;BMP280;46580;52.114;11.674;2023-10-09T01:31:57;-19564.31;;;12.28
60731;BMP280;46580;52.114;11.674;2023-10-09T01:34:35;-19562.16;;;12.21
60731;BMP280;46580;52.114;11.674;2023-10-09T01:37:22;-19564.75;;;12.29
60731;BMP280;46580;52.114;11.674;2023-10-09T01:39:49;-19565.03;;;12.30
60731;BMP280;46580;52.114;11.674;2023-10-09T01:42:16;-19563.75;;;12.26
60731;BMP280;46580;52.114;11.674;2023-10-09T01:45:04;-19562.75;;;12.23
60731;BMP280;46580;52.114;11.674;2023-10-09T01:47:47;-19561.75;;;12.19
60731;BMP280;46580;52.114;11.674;2023-10-09T01:50:21;-19565.31;;;12.31
60731;BMP280;46580;52.114;11.674;2023-10-09T01:53:19;-19563.31;;;12.25
60731;BMP280;46580;52.114;11.674;2023-10-09T01:55:50;-19564.75;;;12.29
60731;BMP280;46580;52.114;11.674;2023-10-09T01:58:20;-19566.75;;;12.36
60731;BMP280;46580;52.114;11.674;2023-10-09T02:00:56;-19567.03;;;12.37
60731;BMP280;46580;52.114;11.674;2023-10-09T02:03:26;-19569.47;;;12.45
60731;BMP280;46580;52.114;11.674;2023-10-09T02:05:54;-19569.88;;;12.47
60731;BMP280;46580;52.114;11.674;2023-10-09T02:08:33;-19564.59;;;12.29
60731;BMP280;46580;52.114;11.674;2023-10-09T02:11:02;-19564.47;;;12.28
60731;BMP280;46580;52.114;11.674;2023-10-09T02:13:28;-19564.59;;;12.29
60731;BMP280;46580;52.114;11.674;2023-10-09T02:16:10;-19566.88;;;12.37
60731;BMP280;46580;52.114;11.674;2023-10-09T02:18:54;-19569.88;;;12.47
60731;BMP280;46580;52.114;11.674;2023-10-09T02:21:24;-19572.16;;;12.55
60731;BMP280;46580;52.114;11.674;2023-10-09T02:24:31;-19574.75;;;12.64
60731;BMP280;46580;52.114;11.674;2023-10-09T02:27:19;-19574.03;;;12.61
60731;BMP280;46580;52.114;11.674;2023-10-09T02:30:07;-19569.59;;;12.46
60731;BMP280;46580;52.114;11.674;2023-10-09T02:32:46;-19568.47;;;12.42
60731;BMP280;46580;52.114;11.674;2023-10-09T02:35:17;-19568.59;;;12.43
60731;BMP280;46580;52.114;11.674;2023-10-09T02:38:01;-19570.47;;;12.49
60731;BMP280;46580;52.114;11.674;2023-10-09T02:40:29;-19569.03;;;12.44
60731;BMP280;46580;52.114;11.674;2023-10-09T02:43:17;-19567.88;;;12.40
60731;BMP280;46580;52.114;11.674;2023-10-09T02:45:44;-19566.75;;;12.36
60731;BMP280;46580;52.114;11.674;2023-10-09T02:48:42;-19565.03;;;12.30
60731;BMP280;46580;52.114;11.674;2023-10-09T02:51:11;-19566.47;;;12.35
60731;BMP280;46580;52.114;11.674;2023-10-09T02:54:00;-19564.47;;;12.28
60731;BMP280;46580;52.114;11.674;2023-10-09T02:56:33;-19563.88;;;12.26
60731;BMP280;46580;52.114;11.674;2023-10-09T02:59:05;-19561.03;;;12.17
60731;BMP280;46580;52.114;11.674;2023-10-09T03:01:31;-19560.88;;;12.16
60731;BMP280;46580;52.114;11.674;2023-10-09T03:03:59;-19558.44;;;12.08
60731;BMP280;46580;52.114;11.674;2023-10-09T03:06:28;-19560.59;;;12.15
60731;BMP280;46580;52.114;11.674;2023-10-09T03:09:02;-19562.47;;;12.22
60731;BMP280;46580;52.114;11.674;2023-10-09T03:11:45;-19564.03;;;12.27
60731;BMP280;46580;52.114;11.674;2023-10-09T03:14:22;-19564.88;;;12.30
60731;BMP280;46580;52.114;11.674;2023-10-09T03:16:52;-19566.47;;;12.35
60731;BMP280;46580;52.114;11.674;2023-10-09T03:19:18;-19566.75;;;12.36
60731;BMP280;46580;52.114;11.674;2023-10-09T03:21:44;-19564.88;;;12.30
60731;BMP280;46580;52.114;11.674;2023-10-09T03:24:11;-19563.03;;;12.24
60731;BMP280;46580;52.114;11.674;2023-10-09T03:26:45;-19560.59;;;12.15
60731;BMP280;46580;52.114;11.674;2023-10-09T03:29:11;-19559.03;;;12.10
60731;BMP280;46580;52.114;11.674;2023-10-09T03:31:37;-19562.03;;;12.20
60731;BMP280;46580;52.114;11.674;2023-10-09T03:34:09;-19562.03;;;12.20
60731;BMP280;46580;52.114;11.674;2023-10-09T03:36:36;-19564.16;;;12.27
60731;BMP280;46580;52.114;11.674;2023-10-09T03:39:05;-19562.75;;;12.23
60731;BMP280;46580;52.114;11.674;2023-10-09T03:42:12;-19564.03;;;12.27
60731;BMP280;46580;52.114;11.674;2023-10-09T03:45:00;-19565.03;;;12.30
60731;BMP280;46580;52.114;11.674;2023-10-09T03:47:26;-19566.16;;;12.34
60731;BMP280;46580;52.114;11.674;2023-10-09T03:49:54;-19567.31;;;12.38
60731;BMP280;46580;52.114;11.674;2023-10-09T03:52:21;-19566.16;;;12.34
60731;BMP280;46580;52.114;11.674;2023-10-09T03:54:50;-19566.03;;;12.34
60731;BMP280;46580;52.114;11.674;2023-10-09T03:57:25;-19566.75;;;12.36
60731;BMP280;46580;52.114;11.674;2023-10-09T03:59:51;-19565.59;;;12.32
60731;BMP280;46580;52.114;11.674;2023-10-09T04:02:18;-19567.03;;;12.37
60731;BMP280;46580;52.114;11.674;2023-10-09T04:04:44;-19568.03;;;12.41
60731;BMP280;46580;52.114;11.674;2023-10-09T04:07:14;-19567.31;;;12.38
60731;BMP280;46580;52.114;11.674;2023-10-09T04:10:03;-19569.59;;;12.46
60731;BMP280;46580;52.114;11.674;2023-10-09T04:12:48;-19569.03;;;12.44
60731;BMP280;46580;52.114;11.674;2023-10-09T04:15:18;-19569.03;;;12.44
60731;BMP280;46580;52.114;11.674;2023-10-09T04:17:48;-19565.59;;;12.32
60731;BMP280;46580;52.114;11.674;2023-10-09T04:20:36;-19563.03;;;12.24
60731;BMP280;46580;52.114;11.674;2023-10-09T04:23:20;-19562.88;;;12.23
60731;BMP280;46580;52.114;11.674;2023-10-09T04:26:00;-19561.88;;;12.20
60731;BMP280;46580;52.114;11.674;2023-10-09T04:28:53;-19564.88;;;12.30
60731;BMP280;46580;52.114;11.674;2023-10-09T04:31:19;-19564.47;;;12.28
60731;BMP280;46580;52.114;11.674;2023-10-09T04:33:47;-19565.31;;;12.31
60731;BMP280;46580;52.114;11.674;2023-10-09T04:36:32;-19565.59;;;12.32
60731;BMP280;46580;52.114;11.674;2023-10-09T04:39:12;-19565.16;;;12.31
60731;BMP280;46580;52.114;11.674;2023-10-09T04:41:37;-19566.59;;;12.36
60731;BMP280;46580;52.114;11.674;2023-10-09T04:44:10;-19564.75;;;12.29
60731;BMP280;46580;52.114;11.674;2023-10-09T04:46:48;-19564.59;;;12.29
60731;BMP280;46580;52.114;11.674;2023-10-09T04:49:34;-19564.88;;;12.30
60731;BMP280;46580;52.114;11.674;2023-10-09T04:52:21;-19565.03;;;12.30
60731;BMP280;46580;52.114;11.674;2023-10-09T04:55:16;-19566.59;;;12.36
60731;BMP280;46580;52.114;11.674;2023-10-09T04:57:51;-19566.47;;;12.35
60731;BMP280;46580;52.114;11.674;2023-10-09T05:00:39;-19566.47;;;12.35
60731;BMP280;46580;52.114;11.674;2023-10-09T05:03:08;-19567.31;;;12.38
60731;BMP280;46580;52.114;11.674;2023-10-09T05:05:39;-19568.88;;;12.44
60731;BMP280;46580;52.114;11.674;2023-10-09T05:08:18;-19570.16;;;12.48
60731;BMP280;46580;52.114;11.674;2023-10-09T05:10:48;-19571.88;;;12.54
60731;BMP280;46580;52.114;11.674;2023-10-09T05:13:27;-19573.88;;;12.61
60731;BMP280;46580;52.114;11.674;2023-10-09T05:16:34;-19573.59;;;12.60
60731;BMP280;46580;52.114;11.674;2023-10-09T05:19:03;-19574.91;;;12.64
60731;BMP280;46580;52.114;11.674;2023-10-09T05:21:40;-19576.31;;;12.69
60731;BMP280;46580;52.114;11.674;2023-10-09T05:24:12;-19574.47;;;12.63
60731;BMP280;46580;52.114;11.674;2023-10-09T05:26:39;-19574.59;;;12.63
60731;BMP280;46580;52.114;11.674;2023-10-09T05:29:41;-19575.19;;;12.65
60731;BMP280;46580;52.114;11.674;2023-10-09T05:32:33;-19574.91;;;12.64
60731;BMP280;46580;52.114;11.674;2023-10-09T05:35:18;-19576.91;;;12.71
60731;BMP280;46580;52.114;11.674;2023-10-09T05:38:06;-19578.47;;;12.76
60731;BMP280;46580;52.114;11.674;2023-10-09T05:40:47;-19580.19;;;12.82
60731;BMP280;46580;52.114;11.674;2023-10-09T05:43:19;-19578.75;;;12.77
60731;BMP280;46580;52.114;11.674;2023-10-09T05:46:03;-19580.47;;;12.83
60731;BMP280;46580;52.114;11.674;2023-10-09T05:48:36;-19577.31;;;12.72
60731;BMP280;46580;52.114;11.674;2023-10-09T05:51:13;-19575.88;;;12.67
60731;BMP280;46580;52.114;11.674;2023-10-09T05:54:02;-19574.31;;;12.62
60731;BMP280;46580;52.114;11.674;2023-10-09T05:56:49;-19572.47;;;12.56
60731;BMP280;46580;52.114;11.674;2023-10-09T05:59:33;-19575.47;;;12.66
60731;BMP280;46580;52.114;11.674;2023-10-09T06:02:17;-19574.03;;;12.61
60731;BMP280;46580;52.114;11.674;2023-10-09T06:05:06;-19574.16;;;12.62
60731;BMP280;46580;52.114;11.674;2023-10-09T06:07:54;-19571.88;;;12.54
60731;BMP280;46580;52.114;11.674;2023-10-09T06:10:35;-19569.59;;;12.46
60731;BMP280;46580;52.114;11.674;2023-10-09T06:13:07;-19565.88;;;12.33
60731;BMP280;46580;52.114;11.674;2023-10-09T06:15:38;-19562.59;;;12.22
60731;BMP280;46580;52.114;11.674;2023-10-09T06:18:27;-19562.75;;;12.23
60731;BMP280;46580;52.114;11.674;2023-10-09T06:20:59;-19562.03;;;12.20
60731;BMP280;46580;52.114;11.674;2023-10-09T06:23:32;-19562.03;;;12.20
60731;BMP280;46580;52.114;11.674;2023-10-09T06:26:35;-19564.88;;;12.30
60731;BMP280;46580;52.114;11.674;2023-10-09T06:29:01;-19565.75;;;12.33
60731;BMP280;46580;52.114;11.674;2023-10-09T06:32:19;-19562.75;;;12.23
60731;BMP280;46580;52.114;11.674;2023-10-09T06:37:48;-19561.03;;;12.17
60731;BMP280;46580;52.114;11.674;2023-10-09T06:40:36;-19561.59;;;12.19
60731;BMP280;46580;52.114;11.674;2023-10-09T06:43:06;-19560.88;;;12.16
60731;BMP280;46580;52.114;11.674;2023-10-09T06:46:15;-19560.31;;;12.14
60731;BMP280;46580;52.114;11.674;2023-10-09T06:49:04;-19560.59;;;12.15
60731;BMP280;46580;52.114;11.674;2023-10-09T06:51:51;-19561.16;;;12.17
60731;BMP280;46580;52.114;11.674;2023-10-09T06:54:26;-19563.03;;;12.24
60731;BMP280;46580;52.114;11.674;2023-10-09T06:57:10;-19560.31;;;12.14
60731;BMP280;46580;52.114;11.674;2023-10-09T06:59:38;-19558.59;;;12.08
60731;BMP280;46580;52.114;11.674;2023-10-09T07:02:24;-19559.75;;;12.12
60731;BMP280;46580;52.114;11.674;2023-10-09T07:04:51;-19560.16;;;12.14
60731;BMP280;46580;52.114;11.674;2023-10-09T07:07:21;-19559.03;;;12.10
60731;BMP280;46580;52.114;11.674;2023-10-09T07:09:49;-19559.59;;;12.12
60731;BMP280;46580;52.114;11.674;2023-10-09T07:12:34;-19558.44;;;12.08
60731;BMP280;46580;52.114;11.674;2023-10-09T07:15:01;-19559.03;;;12.10
60731;BMP280;46580;52.114;11.674;2023-10-09T07:17:45;-19562.59;;;12.22
60731;BMP280;46580;52.114;11.674;2023-10-09T07:20:11;-19562.16;;;12.21
60731;BMP280;46580;52.114;11.674;2023-10-09T07:22:37;-19560.75;;;12.16
60731;BMP280;46580;52.114;11.674;2023-10-09T07:25:18;-19561.16;;;12.17
60731;BMP280;46580;52.114;11.674;2023-10-09T07:28:02;-19563.75;;;12.26
60731;BMP280;46580;52.114;11.674;2023-10-09T07:30:39;-19564.16;;;12.27
60731;BMP280;46580;52.114;11.674;2023-10-09T07:33:07;-19565.59;;;12.32
60731;BMP280;46580;52.114;11.674;2023-10-09T07:35:38;-19567.16;;;12.38
60731;BMP280;46580;52.114;11.674;2023-10-09T07:38:17;-19567.75;;;12.40
60731;BMP280;46580;52.114;11.674;2023-10-09T07:43:55;-19569.47;;;12.45
60731;BMP280;46580;52.114;11.674;2023-10-09T07:46:40;-19567.03;;;12.37
60731;BMP280;46580;52.114;11.674;2023-10-09T07:49:39;-19566.16;;;12.34
60731;BMP280;46580;52.114;11.674;2023-10-09T07:52:04;-19566.16;;;12.34
60731;BMP280;46580;52.114;11.674;2023-10-09T07:54:31;-19564.16;;;12.27
60731;BMP280;46580;52.114;11.674;2023-10-09T07:57:01;-19566.16;;;12.34
60731;BMP280;46580;52.114;11.674;2023-10-09T07:59:42;-19564.47;;;12.28
60731;BMP280;46580;52.114;11.674;2023-10-09T08:02:38;-19565.59;;;12.32
60731;BMP280;46580;52.114;11.674;2023-10-09T08:05:26;-19565.03;;;12.30
60731;BMP280;46580;52.114;11.674;2023-10-09T08:08:02;-19566.03;;;12.34
60731;BMP280;46580;52.114;11.674;2023-10-09T08:10:47;-19564.59;;;12.29
60731;BMP280;46580;52.114;11.674;2023-10-09T08:13:39;-19563.16;;;12.24
60731;BMP280;46580;52.114;11.674;2023-10-09T08:16:24;-19561.75;;;12.19
60731;BMP280;46580;52.114;11.674;2023-10-09T08:19:09;-19563.59;;;12.26
60731;BMP280;46580;52.114;11.674;2023-10-09T08:21:54;-19561.88;;;12.20
60731;BMP280;46580;52.114;11.674;2023-10-09T08:24:41;-19563.31;;;12.25
60731;BMP280;46580;52.114;11.674;2023-10-09T08:27:09;-19566.31;;;12.35
60731;BMP280;46580;52.114;11.674;2023-10-09T08:29:53;-19567.03;;;12.37
60731;BMP280;46580;52.114;11.674;2023-10-09T08:32:38;-19570.03;;;12.47
60731;BMP280;46580;52.114;11.674;2023-10-09T08:35:06;-19567.75;;;12.40
60731;BMP280;46580;52.114;11.674;2023-10-09T08:38:00;-19570.31;;;12.48
60731;BMP280;46580;52.114;11.674;2023-10-09T08:40:40;-19570.47;;;12.49
60731;BMP280;46580;52.114;11.674;2023-10-09T08:43:30;-19569.75;;;12.46
60731;BMP280;46580;52.114;11.674;2023-10-09T08:46:09;-19569.88;;;12.47
60731;BMP280;46580;52.114;11.674;2023-10-09T08:48:38;-19569.03;;;12.44
60731;BMP280;46580;52.114;11.674;2023-10-09T08:51:05;-19570.75;;;12.50
60731;BMP280;46580;52.114;11.674;2023-10-09T08:53:31;-19569.88;;;12.47
60731;BMP280;46580;52.114;11.674;2023-10-09T08:55:59;-19571.59;;;12.53
60731;BMP280;46580;52.114;11.674;2023-10-09T08:58:37;-19572.88;;;12.57
60731;BMP280;46580;52.114;11.674;2023-10-09T09:01:04;-19573.31;;;12.59
60731;BMP280;46580;52.114;11.674;2023-10-09T09:03:38;-19575.31;;;12.65
60731;BMP280;46580;52.114;11.674;2023-10-09T09:06:04;-19577.31;;;12.72
60731;BMP280;46580;52.114;11.674;2023-10-09T09:08:32;-19578.59;;;12.77
60731;BMP280;46580;52.114;11.674;2023-10-09T09:11:14;-19578.75;;;12.77
60731;BMP280;46580;52.114;11.674;2023-10-09T09:16:44;-19580.47;;;12.83
60731;BMP280;46580;52.114;11.674;2023-10-09T09:19:13;-19581.03;;;12.85
60731;BMP280;46580;52.114;11.674;2023-10-09T09:21:50;-19580.19;;;12.82
60731;BMP280;46580;52.114;11.674;2023-10-09T09:24:23;-19579.03;;;12.78
60731;BMP280;46580;52.114;11.674;2023-10-09T09:27:15;-19580.03;;;12.82
60731;BMP280;46580;52.114;11.674;2023-10-09T09:29:55;-19578.03;;;12.75
60731;BMP280;46580;52.114;11.674;2023-10-09T09:32:31;-19580.91;;;12.84
60731;BMP280;46580;52.114;11.674;2023-10-09T09:36:02;-19581.88;;;12.88
60731;BMP280;46580;52.114;11.674;2023-10-09T09:38:30;-19584.59;;;12.97
60731;BMP280;46580;52.114;11.674;2023-10-09T09:41:18;-19584.91;;;12.98
60731;BMP280;46580;52.114;11.674;2023-10-09T09:43:55;-19584.91;;;12.98
60731;BMP280;46580;52.114;11.674;2023-10-09T09:46:44;-19586.31;;;13.03
60731;BMP280;46580;52.114;11.674;2023-10-09T09:49:11;-19587.03;;;13.05
60731;BMP280;46580;52.114;11.674;2023-10-09T09:52:13;-19586.47;;;13.03
60731;BMP280;46580;52.114;11.674;2023-10-09T09:54:40;-19588.47;;;13.10
60731;BMP280;46580;52.114;11.674;2023-10-09T09:57:07;-19588.75;;;13.11
60731;BMP280;46580;52.114;11.674;2023-10-09T09:59:52;-19591.03;;;13.19
60731;BMP280;46580;52.114;11.674;2023-10-09T10:02:41;-19589.03;;;13.12
60731;BMP280;46580;52.114;11.674;2023-10-09T10:05:28;-19591.03;;;13.19
60731;BMP280;46580;52.114;11.674;2023-10-09T10:08:13;-19595.19;;;13.33
60731;BMP280;46580;52.114;11.674;2023-10-09T10:10:52;-19594.59;;;13.31
60731;BMP280;46580;52.114;11.674;2023-10-09T10:16:12;-19592.03;;;13.22
60731;BMP280;46580;52.114;11.674;2023-10-09T10:19:13;-19593.59;;;13.28
60731;BMP280;46580;52.114;11.674;2023-10-09T10:21:39;-19595.19;;;13.33
60731;BMP280;46580;52.114;11.674;2023-10-09T10:33:07;-19591.88;;;13.22
60731;BMP280;46580;52.114;11.674;2023-10-09T10:35:38;-19589.47;;;13.14
60731;BMP280;46580;52.114;11.674;2023-10-09T10:38:38;-19589.31;;;13.13
60731;BMP280;46580;52.114;11.674;2023-10-09T10:41:26;-19589.31;;;13.13
60731;BMP280;46580;52.114;11.674;2023-10-09T10:44:08;-19591.03;;;13.19
60731;BMP280;46580;52.114;11.674;2023-10-09T10:46:55;-19591.59;;;13.21
60731;BMP280;46580;52.114;11.674;2023-10-09T10:49:21;-19591.88;;;13.22
60731;BMP280;46580;52.114;11.674;2023-10-09T10:51:48;-19593.88;;;13.29
60731;BMP280;46580;52.114;11.674;2023-10-09T10:54:41;-19595.59;;;13.35
60731;BMP280;46580;52.114;11.674;2023-10-09T10:57:19;-19594.03;;;13.29
60731;BMP280;46580;52.114;11.674;2023-10-09T10:59:46;-19592.31;;;13.23
60731;BMP280;46580;52.114;11.674;2023-10-09T11:02:16;-19591.31;;;13.20
60731;BMP280;46580;52.114;11.674;2023-10-09T11:04:57;-19593.88;;;13.29
60731;BMP280;46580;52.114;11.674;2023-10-09T11:07:42;-19594.59;;;13.31
60731;BMP280;46580;52.114;11.674;2023-10-09T11:10:10;-19597.31;;;13.40
60731;BMP280;46580;52.114;11.674;2023-10-09T11:12:46;-19600.75;;;13.52
60731;BMP280;46580;52.114;11.674;2023-10-09T11:15:34;-19598.03;;;13.43
60731;BMP280;46580;52.114;11.674;2023-10-09T11:18:10;-19597.59;;;13.41
60731;BMP280;46580;52.114;11.674;2023-10-09T11:20:54;-19600.47;;;13.51
60731;BMP280;46580;52.114;11.674;2023-10-09T11:23:37;-19601.59;;;13.55
60731;BMP280;46580;52.114;11.674;2023-10-09T11:26:05;-19601.88;;;13.56
60731;BMP280;46580;52.114;11.674;2023-10-09T11:29:15;-19599.59;;;13.48
60731;BMP280;46580;52.114;11.674;2023-10-09T11:32:00;-19601.88;;;13.56
60731;BMP280;46580;52.114;11.674;2023-10-09T11:34:28;-19602.16;;;13.57
60731;BMP280;46580;52.114;11.674;2023-10-09T11:37:35;-19602.03;;;13.57
60731;BMP280;46580;52.114;11.674;2023-10-09T11:40:31;-19604.75;;;13.66
60731;BMP280;46580;52.114;11.674;2023-10-09T11:43:16;-19606.03;;;13.70
60731;BMP280;46580;52.114;11.674;2023-10-09T11:45:45;-19606.59;;;13.72
60731;BMP280;46580;52.114;11.674;2023-10-09T11:48:21;-19607.44;;;13.75
60731;BMP280;46580;52.114;11.674;2023-10-09T11:51:20;-19603.88;;;13.63
60731;BMP280;46580;52.114;11.674;2023-10-09T11:53:47;-19603.19;;;13.60
60731;BMP280;46580;52.114;11.674;2023-10-09T11:56:21;-19604.47;;;13.65
60731;BMP280;46580;52.114;11.674;2023-10-09T11:58:57;-19603.75;;;13.62
60731;BMP280;46580;52.114;11.674;2023-10-09T12:01:29;-19604.16;;;13.64
60731;BMP280;46580;52.114;11.674;2023-10-09T12:04:01;-19604.75;;;13.66
60731;BMP280;46580;52.114;11.674;2023-10-09T12:06:37;-19606.88;;;13.73
60731;BMP280;46580;52.114;11.674;2023-10-09T12:09:04;-19607.88;;;13.76
60731;BMP280;46580;52.114;11.674;2023-10-09T12:11:31;-19610.75;;;13.86
60731;BMP280;46580;52.114;11.674;2023-10-09T12:13:57;-19611.31;;;13.88
60731;BMP280;46580;52.114;11.674;2023-10-09T12:16:24;-19611.75;;;13.90
60731;BMP280;46580;52.114;11.674;2023-10-09T12:19:16;-19612.59;;;13.93
60731;BMP280;46580;52.114;11.674;2023-10-09T12:21:59;-19611.03;;;13.87
60731;BMP280;46580;52.114;11.674;2023-10-09T12:24:40;-19610.47;;;13.85
60731;BMP280;46580;52.114;11.674;2023-10-09T12:27:09;-19611.03;;;13.87
60731;BMP280;46580;52.114;11.674;2023-10-09T12:29:37;-19610.16;;;13.84
60731;BMP280;46580;52.114;11.674;2023-10-09T12:32:15;-19608.31;;;13.78
60731;BMP280;46580;52.114;11.674;2023-10-09T12:34:44;-19606.75;;;13.73
60731;BMP280;46580;52.114;11.674;2023-10-09T12:37:10;-19609.44;;;13.82
60731;BMP280;46580;52.114;11.674;2023-10-09T12:39:37;-19610.16;;;13.84
60731;BMP280;46580;52.114;11.674;2023-10-09T12:42:06;-19613.03;;;13.94
60731;BMP280;46580;52.114;11.674;2023-10-09T12:44:53;-19609.44;;;13.82
60731;BMP280;46580;52.114;11.674;2023-10-09T12:47:22;-19612.47;;;13.92
60731;BMP280;46580;52.114;11.674;2023-10-09T12:49:56;-19613.44;;;13.95
60731;BMP280;46580;52.114;11.674;2023-10-09T12:52:22;-19612.88;;;13.94
60731;BMP280;46580;52.114;11.674;2023-10-09T12:57:54;-19619.03;;;14.14
60731;BMP280;46580;52.114;11.674;2023-10-09T13:00:20;-19617.72;;;14.10
60731;BMP280;46580;52.114;11.674;2023-10-09T13:02:51;-19619.16;;;14.15
60731;BMP280;46580;52.114;11.674;2023-10-09T13:05:17;-19619.44;;;14.16
60731;BMP280;46580;52.114;11.674;2023-10-09T13:07:53;-19619.59;;;14.16
60731;BMP280;46580;52.114;11.674;2023-10-09T13:10:25;-19620.16;;;14.18
60731;BMP280;46580;52.114;11.674;2023-10-09T13:12:51;-19619.31;;;14.15
60731;BMP280;46580;52.114;11.674;2023-10-09T13:15:21;-19621.16;;;14.22
60731;BMP280;46580;52.114;11.674;2023-10-09T13:17:47;-19622.31;;;14.26
60731;BMP280;46580;52.114;11.674;2023-10-09T13:20:13;-19622.31;;;14.26
60731;BMP280;46580;52.114;11.674;2023-10-09T13:23:00;-19626.16;;;14.39
60731;BMP280;46580;52.114;11.674;2023-10-09T13:28:12;-19627.72;;;14.44
60731;BMP280;46580;52.114;11.674;2023-10-09T13:30:46;-19629.28;;;14.50
60731;BMP280;46580;52.114;11.674;2023-10-09T13:33:15;-19631.00;;;14.55
60731;BMP280;46580;52.114;11.674;2023-10-09T13:35:42;-19628.88;;;14.48
60731;BMP280;46580;52.114;11.674;2023-10-09T13:38:16;-19628.72;;;14.48
60731;BMP280;46580;52.114;11.674;2023-10-09T13:40:42;-19631.56;;;14.57
60731;BMP280;46580;52.114;11.674;2023-10-09T13:43:08;-19630.72;;;14.54
60731;BMP280;46580;52.114;11.674;2023-10-09T13:45:44;-19633.56;;;14.64
60731;BMP280;46580;52.114;11.674;2023-10-09T13:48:15;-19631.28;;;14.56
60731;BMP280;46580;52.114;11.674;2023-10-09T13:50:43;-19630.44;;;14.53
60731;BMP280;46580;52.114;11.674;2023-10-09T13:53:10;-19633.00;;;14.62
60731;BMP280;46580;52.114;11.674;2023-10-09T13:55:37;-19631.56;;;14.57
60731;BMP280;46580;52.114;11.674;2023-10-09T13:58:16;-19632.28;;;14.60
60731;BMP280;46580;52.114;11.674;2023-10-09T14:00:46;-19632.16;;;14.59
60731;BMP280;46580;52.114;11.674;2023-10-09T14:03:17;-19632.28;;;14.60
60731;BMP280;46580;52.114;11.674;2023-10-09T14:05:49;-19633.00;;;14.62
60731;BMP280;46580;52.114;11.674;2023-10-09T14:08:20;-19632.00;;;14.59
60731;BMP280;46580;52.114;11.674;2023-10-09T14:10:49;-19635.00;;;14.69
60731;BMP280;46580;52.114;11.674;2023-10-09T14:13:32;-19633.00;;;14.62
60731;BMP280;46580;52.114;11.674;2023-10-09T14:15:58;-19633.00;;;14.62
60731;BMP280;46580;52.114;11.674;2023-10-09T14:18:27;-19634.16;;;14.66
60731;BMP280;46580;52.114;11.674;2023-10-09T14:21:12;-19635.00;;;14.69
60731;BMP280;46580;52.114;11.674;2023-10-09T14:23:53;-19634.44;;;14.67
60731;BMP280;46580;52.114;11.674;2023-10-09T14:26:26;-19636.16;;;14.73
60731;BMP280;46580;52.114;11.674;2023-10-09T14:28:53;-19637.84;;;14.79
60731;BMP280;46580;52.114;11.674;2023-10-09T14:31:36;-19634.72;;;14.68
60731;BMP280;46580;52.114;11.674;2023-10-09T14:34:24;-19635.56;;;14.71
60731;BMP280;46580;52.114;11.674;2023-10-09T14:37:03;-19636.16;;;14.73
60731;BMP280;46580;52.114;11.674;2023-10-09T14:39:31;-19637.56;;;14.78
60731;BMP280;46580;52.114;11.674;2023-10-09T14:42:02;-19639.00;;;14.83
60731;BMP280;46580;52.114;11.674;2023-10-09T14:44:39;-19639.72;;;14.85
60731;BMP280;46580;52.114;11.674;2023-10-09T14:47:06;-19641.28;;;14.90
60731;BMP280;46580;52.114;11.674;2023-10-09T14:49:34;-19640.56;;;14.88
60731;BMP280;46580;52.114;11.674;2023-10-09T14:52:04;-19639.41;;;14.84
60731;BMP280;46580;52.114;11.674;2023-10-09T14:54:44;-19638.84;;;14.82
60731;BMP280;46580;52.114;11.674;2023-10-09T15:00:17;-19645.00;;;15.03
60731;BMP280;46580;52.114;11.674;2023-10-09T15:02:49;-19645.72;;;15.06
60731;BMP280;46580;52.114;11.674;2023-10-09T15:05:16;-19646.56;;;15.08
60731;BMP280;46580;52.114;11.674;2023-10-09T15:07:42;-19644.13;;;15.00